Time;durP1;ratioP1;P1;durP2;ratioP2;P2;SDS_P1;SDS_P2;PMS_P1;PMS_P2;Temp;Humidity;BMP_temperature;BMP_pressure;BME280_temperature;BME280_humidity;BME280_pressure;Samples;Min_cycle;Max_cycle;Signal;HPM_P1;HPM_P2
2022/05/03 00:02:51;;;;;;;11.57;5.28;;;5.10;99.90;;;3.70;82.47;101183.25;4966318;28;20041;-75
2022/05/03 00:06:05;;;;;;;9.85;5.05;;;5.00;99.90;;;3.62;82.31;101187.66;4967402;28;20031;-75
2022/05/03 00:09:00;;;;;;;8.65;5.20;;;5.00;99.90;;;3.55;82.80;101179.94;4964329;28;20066;-74
2022/05/03 00:11:33;;;;;;;9.63;5.00;;;4.90;99.90;;;3.54;83.20;101175.59;4955655;28;20572;-75
2022/05/03 00:14:17;;;;;;;11.10;4.75;;;5.00;99.90;;;3.59;84.20;101172.09;4952282;28;20061;-75
2022/05/03 00:16:45;;;;;;;7.72;4.65;;;5.00;99.90;;;3.64;84.33;101170.28;4964919;28;20046;-74
2022/05/03 00:19:11;;;;;;;7.38;4.80;;;5.00;99.90;;;3.68;83.88;101166.75;4962593;28;20053;-75
2022/05/03 00:21:38;;;;;;;8.15;4.55;;;5.00;99.90;;;3.70;83.77;101167.63;4963526;28;20458;-75
2022/05/03 00:24:05;;;;;;;14.02;4.43;;;5.00;99.90;;;3.71;83.81;101163.25;4962505;28;20023;-74
2022/05/03 00:26:32;;;;;;;9.48;4.35;;;5.00;99.90;;;3.64;83.16;101164.22;4968235;28;20042;-75
2022/05/03 00:28:59;;;;;;;8.80;5.05;;;5.00;99.90;;;3.53;82.37;101163.47;4964255;28;20022;-74
2022/05/03 00:31:27;;;;;;;11.60;5.07;;;4.90;99.90;;;3.41;81.97;101159.25;4959375;28;21269;-74
2022/05/03 00:33:54;;;;;;;7.10;4.45;;;4.80;99.90;;;3.25;81.59;101164.59;4953435;28;20022;-74
2022/05/03 00:36:21;;;;;;;7.70;4.82;;;4.70;99.90;;;3.14;81.72;101166.44;4966085;28;20030;-75
2022/05/03 00:38:48;;;;;;;9.90;4.63;;;4.50;99.90;;;3.03;81.83;101158.72;4962283;28;20030;-73
2022/05/03 00:41:26;;;;;;;10.27;4.97;;;4.40;99.90;;;2.97;82.08;101153.56;4953367;28;20038;-74
2022/05/03 00:44:56;;;;;;;10.07;4.28;;;4.40;99.90;;;2.92;82.40;101155.38;4960455;28;20403;-74
2022/05/03 00:47:51;;;;;;;8.32;4.65;;;4.40;99.90;;;2.92;83.71;101152.75;4911133;29;20429;-75
2022/05/03 00:50:41;;;;;;;7.78;3.88;;;4.40;99.90;;;2.97;84.42;101163.97;4943166;28;20043;-74
2022/05/03 00:53:23;;;;;;;6.85;4.47;;;4.40;99.90;;;3.01;84.82;101160.47;4975643;28;20039;-74
2022/05/03 00:56:43;;;;;;;6.72;3.95;;;4.40;99.90;;;3.10;85.61;101158.69;4967827;28;20034;-75
2022/05/03 00:59:52;;;;;;;14.35;4.30;;;4.50;99.90;;;3.15;85.73;101149.94;4971484;28;20038;-74
2022/05/03 01:02:30;;;;;;;11.00;4.25;;;4.60;99.90;;;3.22;86.03;101158.59;4962516;28;20046;-73
2022/05/03 01:05:11;;;;;;;10.40;3.92;;;4.60;99.90;;;3.26;85.99;101155.03;4951205;28;20023;-74
2022/05/03 01:08:07;;;;;;;12.70;4.10;;;4.60;99.90;;;3.28;85.23;101150.69;4967721;28;20041;-74
2022/05/03 01:11:00;;;;;;;11.50;4.38;;;4.70;99.90;;;3.32;85.88;101157.59;4961600;28;20439;-74
2022/05/03 01:13:47;;;;;;;7.80;4.10;;;4.70;99.90;;;3.35;85.52;101154.09;4973546;28;20022;-73
2022/05/03 01:16:32;;;;;;;9.57;4.18;;;4.70;99.90;;;3.36;85.64;101148.88;4967654;28;20023;-74
2022/05/03 01:19:00;;;;;;;8.18;3.97;;;4.70;99.90;;;3.35;85.50;101149.78;4971600;28;20076;-74
2022/05/03 01:22:07;;;;;;;7.97;3.97;;;4.70;99.90;;;3.25;84.65;101154.19;4978079;28;20062;-74
2022/05/03 01:25:18;;;;;;;9.15;4.03;;;4.60;99.90;;;3.11;84.10;101155.19;4957711;28;20399;-74
2022/05/03 01:28:10;;;;;;;7.32;4.25;;;4.50;99.90;;;2.94;83.88;101148.41;4962429;28;20084;-74
2022/05/03 01:30:37;;;;;;;8.82;4.47;;;4.30;99.90;;;2.80;84.25;101150.25;4967141;28;20023;-74
2022/05/03 01:33:08;;;;;;;9.52;4.90;;;4.20;99.90;;;2.72;84.42;101141.63;4968005;28;20105;-74
2022/05/03 01:35:39;;;;;;;7.40;4.35;;;4.10;99.90;;;2.62;84.96;101151.25;4961040;28;20480;-74
2022/05/03 01:38:30;;;;;;;6.63;4.43;;;4.10;99.90;;;2.56;85.37;101146.94;4961672;28;20065;-74
2022/05/03 01:41:10;;;;;;;9.88;4.95;;;4.00;99.90;;;2.49;86.34;101144.41;4961548;28;20039;-74
2022/05/03 01:44:08;;;;;;;9.07;4.32;;;3.90;99.90;;;2.45;86.40;101143.56;4958893;28;20080;-75
2022/05/03 01:46:38;;;;;;;8.93;4.75;;;3.90;99.90;;;2.42;86.86;101149.66;4968737;28;20034;-74
2022/05/03 01:53:01;;;;;;;10.57;5.35;;;3.90;99.90;;;2.50;88.36;101146.13;4962241;28;20133;-74
2022/05/03 01:55:49;;;;;;;7.88;4.85;;;3.90;99.90;;;2.56;89.23;101149.56;4961671;28;20508;-74
2022/05/03 01:58:47;;;;;;;7.43;4.53;;;4.00;99.90;;;2.63;89.97;101148.63;4960454;28;20100;-74
2022/05/03 02:01:40;;;;;;;8.38;4.65;;;4.10;99.90;;;2.71;90.25;101147.72;4961468;28;20110;-74
2022/05/03 02:04:36;;;;;;;9.98;4.82;;;4.10;99.90;;;2.76;90.45;101145.94;4960778;28;20935;-74
2022/05/03 02:07:34;;;;;;;8.95;4.82;;;4.10;99.90;;;2.80;90.49;101153.72;4960045;28;21059;-74
2022/05/03 02:10:27;;;;;;;7.18;4.68;;;4.20;99.90;;;2.80;90.48;101150.25;4953193;28;20039;-74
2022/05/03 02:12:57;;;;;;;8.88;4.78;;;4.20;99.90;;;2.78;89.87;101152.84;4953825;28;20058;-74
2022/05/03 02:15:44;;;;;;;8.32;4.95;;;4.20;99.90;;;2.80;89.94;101134.66;4977101;28;20054;-74
2022/05/03 02:18:30;;;;;;;10.75;4.90;;;4.20;99.90;;;2.82;90.17;101153.69;4952300;28;20034;-74
2022/05/03 02:21:17;;;;;;;8.15;4.85;;;4.20;99.90;;;2.85;90.48;101140.66;4966906;28;20018;-74
2022/05/03 02:24:03;;;;;;;10.23;4.57;;;4.20;99.90;;;2.87;90.38;101144.13;4966527;28;20026;-74
2022/05/03 02:27:10;;;;;;;10.00;4.88;;;4.20;99.90;;;2.90;90.41;101141.50;4967185;28;20030;-73
2022/05/03 02:29:50;;;;;;;15.63;4.88;;;4.30;99.90;;;2.94;91.07;101140.59;4973988;28;20599;-74
2022/05/03 02:32:26;;;;;;;7.57;4.88;;;4.30;99.90;;;2.98;90.79;101144.03;4960713;28;20031;-74
2022/05/03 02:35:03;;;;;;;10.10;4.97;;;4.40;99.90;;;3.00;91.10;101132.75;4977013;28;20416;-74
2022/05/03 02:37:47;;;;;;;6.88;5.07;;;4.40;99.90;;;3.02;91.13;101141.41;4965076;28;20034;-74
2022/05/03 02:40:18;;;;;;;10.10;4.70;;;4.40;99.90;;;3.04;91.10;101137.03;4970368;28;21882;-74
2022/05/03 02:42:45;;;;;;;10.55;4.75;;;4.40;99.90;;;3.00;90.74;101137.06;4978809;28;20035;-73
2022/05/03 02:45:13;;;;;;;8.15;4.63;;;4.30;99.90;;;2.95;90.28;101133.66;4964356;28;20041;-74
2022/05/03 02:48:01;;;;;;;8.38;4.88;;;4.30;99.90;;;2.85;88.82;101132.84;4978309;28;20562;-73
2022/05/03 02:50:54;;;;;;;10.55;5.20;;;4.20;99.90;;;2.75;88.71;101123.44;4966061;28;20104;-73
2022/05/03 02:53:41;;;;;;;13.55;5.07;;;4.20;99.90;;;2.70;88.70;101126.06;4976800;28;20051;-75
2022/05/03 02:56:43;;;;;;;9.65;5.53;;;4.10;99.90;;;2.64;88.24;101131.31;4979683;28;20030;-74
2022/05/03 03:02:34;;;;;;;11.43;5.57;;;4.00;99.90;;;2.57;89.14;101122.69;4960108;28;20029;-74
2022/05/03 03:05:08;;;;;;;10.32;5.93;;;4.00;99.90;;;2.55;90.19;101119.25;4978437;28;20036;-74
2022/05/03 03:08:02;;;;;;;11.82;6.47;;;4.00;99.90;;;2.59;90.89;101120.94;4964569;28;20030;-74
2022/05/03 03:10:50;;;;;;;13.85;6.60;;;4.00;99.90;;;2.63;91.23;101133.03;4961853;28;20495;-73
2022/05/03 03:13:58;;;;;;;9.50;5.88;;;4.00;99.90;;;2.69;92.11;101121.72;4967894;28;20208;-74
2022/05/03 03:16:32;;;;;;;13.05;7.05;;;4.10;99.90;;;2.77;92.64;101122.53;4955236;28;20560;-74
2022/05/03 03:19:07;;;;;;;12.70;6.97;;;4.20;99.90;;;2.90;93.84;101135.44;4964629;28;20043;-74
2022/05/03 03:21:35;;;;;;;17.38;7.50;;;4.30;99.90;;;3.04;94.29;101133.56;4963420;28;20029;-74
2022/05/03 03:24:01;;;;;;;23.98;7.40;;;4.40;99.90;;;3.20;95.62;101145.56;4981943;28;20046;-74
2022/05/03 03:26:30;;;;;;;11.10;6.82;;;4.50;99.90;;;3.34;95.73;101132.41;4966614;28;20023;-74
2022/05/03 03:29:02;;;;;;;9.45;6.53;;;4.70;99.90;;;3.45;96.16;101140.97;4968456;28;20027;-74
2022/05/03 03:31:29;;;;;;;15.52;6.90;;;4.80;99.90;;;3.57;96.16;101144.34;4964720;28;20065;-74
2022/05/03 03:33:57;;;;;;;17.23;6.28;;;4.90;99.90;;;3.67;96.27;101138.13;4978520;28;20118;-74
2022/05/03 03:36:25;;;;;;;14.38;6.22;;;4.90;99.90;;;3.76;96.22;101140.66;4965250;28;20039;-74
2022/05/03 03:38:50;;;;;;;11.25;6.25;;;5.10;99.90;;;3.86;95.69;101150.06;4962064;28;20045;-74
2022/05/03 03:41:16;;;;;;;13.13;7.00;;;5.20;99.90;;;3.97;95.75;101138.66;4964562;28;20046;-74
2022/05/03 03:43:42;;;;;;;16.50;6.90;;;5.20;99.90;;;4.08;95.63;101136.75;4947141;28;20376;-73
2022/05/03 03:46:08;;;;;;;12.27;6.97;;;5.40;99.90;;;4.17;95.86;101143.59;4968661;28;20038;-74
2022/05/03 03:48:34;;;;;;;12.48;7.50;;;5.40;99.90;;;4.29;95.69;101146.03;4964635;28;20031;-74
2022/05/03 03:51:01;;;;;;;16.20;7.32;;;5.50;99.90;;;4.38;95.49;101143.28;4955963;28;21974;-73
2022/05/03 03:53:27;;;;;;;16.17;6.32;;;5.60;99.90;;;4.49;95.30;101145.75;4979166;28;20026;-74
2022/05/03 03:55:54;;;;;;;15.90;6.80;;;5.70;99.90;;;4.60;95.09;101151.69;4964021;28;20434;-74
2022/05/03 03:58:20;;;;;;;12.82;6.90;;;5.80;99.90;;;4.71;94.47;101147.16;4962834;28;20782;-74
2022/05/03 04:00:49;;;;;;;13.25;7.10;;;5.90;99.90;;;4.81;94.49;101144.41;4978594;28;20046;-73
2022/05/03 04:03:16;;;;;;;13.15;7.30;;;6.00;99.90;;;4.92;94.51;101145.06;4966010;28;20027;-74
2022/05/03 04:05:42;;;;;;;12.70;7.20;;;6.10;99.90;;;5.05;94.75;101148.34;4963351;28;20053;-74
2022/05/03 04:08:10;;;;;;;13.93;7.53;;;6.20;99.90;;;5.18;94.75;101149.00;4962307;28;20034;-74
2022/05/03 04:10:35;;;;;;;16.17;7.78;;;6.40;99.90;;;5.30;94.79;101148.78;4962680;28;20395;-74
2022/05/03 04:13:01;;;;;;;10.70;7.47;;;6.50;99.90;;;5.42;94.94;101147.69;4962987;28;20038;-74
2022/05/03 04:15:27;;;;;;;11.90;7.70;;;6.60;99.90;;;5.55;95.18;101152.66;4964712;28;20040;-74
2022/05/03 04:17:53;;;;;;;15.25;7.68;;;6.70;99.90;;;5.70;94.87;101158.47;4964556;28;20039;-74
2022/05/03 04:20:18;;;;;;;12.70;7.57;;;6.80;99.90;;;5.83;95.11;101157.38;4960089;28;20028;-74
2022/05/03 04:22:44;;;;;;;14.88;7.50;;;6.90;99.90;;;5.95;95.14;101151.03;4980806;28;20784;-74
2022/05/03 04:25:11;;;;;;;18.73;7.65;;;7.10;99.90;;;6.08;94.72;101154.28;4964179;28;20075;-74
2022/05/03 04:27:37;;;;;;;19.15;7.63;;;7.20;99.90;;;6.19;94.42;101157.50;4961440;28;20545;-74
2022/05/03 04:30:04;;;;;;;13.25;7.90;;;7.30;99.90;;;6.29;94.10;101159.03;4994032;28;20125;-74
2022/05/03 04:32:31;;;;;;;15.43;7.30;;;7.40;99.90;;;6.40;93.99;101160.56;4960573;28;20427;-75
2022/05/03 04:34:58;;;;;;;16.63;7.60;;;7.50;99.90;;;6.50;93.77;101159.44;4975559;28;20097;-74
2022/05/03 04:37:23;;;;;;;10.80;7.13;;;7.60;99.90;;;6.62;93.40;101166.16;4959936;28;20047;-74
2022/05/03 04:39:50;;;;;;;16.17;8.18;;;7.80;99.90;;;6.75;92.95;101165.81;4978213;28;20106;-74
2022/05/03 04:42:16;;;;;;;23.65;7.75;;;7.80;99.90;;;6.89;93.47;101175.09;4978056;28;20535;-75
2022/05/03 04:44:42;;;;;;;13.52;7.60;;;8.00;99.90;;;7.07;93.20;101177.28;4961041;28;20517;-74
2022/05/03 04:47:08;;;;;;;12.70;7.20;;;8.20;99.90;;;7.26;92.98;101179.44;4963505;28;20039;-74
2022/05/03 04:49:34;;;;;;;12.52;7.78;;;8.30;99.90;;;7.44;92.41;101178.09;4963030;28;20027;-74
2022/05/03 04:51:59;;;;;;;15.60;7.45;;;8.40;99.90;;;7.58;91.91;101187.31;4963280;28;20157;-74
2022/05/03 04:54:25;;;;;;;12.90;7.80;;;8.60;99.90;;;7.73;91.46;101182.53;4962290;28;20031;-74
2022/05/03 04:57:04;;;;;;;11.13;6.78;;;8.70;99.90;;;7.82;90.59;101182.31;4960970;28;20531;-74
2022/05/03 04:59:30;;;;;;;18.13;7.07;;;8.80;99.90;;;7.92;90.62;101183.75;4962809;28;20038;-75
2022/05/03 05:01:56;;;;;;;11.98;6.70;;;8.90;99.90;;;8.05;90.76;101184.25;4946097;28;20026;-74
2022/05/03 05:04:22;;;;;;;13.15;6.85;;;9.00;99.90;;;8.16;89.56;101183.94;4977531;28;20019;-74
2022/05/03 05:06:47;;;;;;;16.30;6.90;;;9.10;99.90;;;8.15;89.06;101192.75;4961573;28;20026;-75
2022/05/03 05:09:13;;;;;;;14.25;6.00;;;9.10;99.90;;;8.05;89.30;101193.91;4976797;28;20120;-74
2022/05/03 05:11:39;;;;;;;13.10;6.50;;;9.10;99.90;;;8.06;89.39;101198.25;4947428;28;20042;-75
2022/05/03 05:14:04;;;;;;;10.80;6.28;;;9.20;99.90;;;8.12;88.91;101203.31;4961256;28;20026;-75
2022/05/03 05:16:30;;;;;;;13.07;7.32;;;9.20;99.90;;;8.13;88.57;101197.16;4962095;28;20042;-75
2022/05/03 05:18:56;;;;;;;12.60;6.47;;;9.20;99.90;;;8.20;88.61;101206.56;4962370;28;20027;-74
2022/05/03 05:21:22;;;;;;;15.45;6.72;;;9.20;99.90;;;8.22;88.90;101202.13;4962438;28;22738;-74
2022/05/03 05:23:48;;;;;;;15.02;6.88;;;9.30;99.90;;;8.22;89.59;101207.38;4958401;28;20054;-74
2022/05/03 05:26:14;;;;;;;11.13;6.60;;;9.30;99.90;;;8.28;89.48;101212.47;4947433;28;20046;-74
2022/05/03 05:28:39;;;;;;;11.02;6.47;;;9.30;99.90;;;8.30;89.49;101210.66;4945663;28;20028;-74
2022/05/03 05:31:05;;;;;;;11.48;6.43;;;9.40;99.90;;;8.32;89.84;101210.63;4963671;28;20042;-75
2022/05/03 05:33:31;;;;;;;12.50;6.80;;;9.40;99.90;;;8.37;89.56;101214.81;4960921;28;20042;-74
2022/05/03 05:35:57;;;;;;;14.70;8.13;;;8.80;99.90;;;8.46;89.68;101212.84;4971969;28;20113;-75
2022/05/03 05:38:22;;;;;;;13.05;6.90;;;9.50;99.90;;;8.50;89.06;101219.72;4966818;28;20041;-75
2022/05/03 05:40:48;;;;;;;11.68;6.57;;;9.50;99.90;;;8.35;89.97;101211.38;4977936;28;20454;-74
2022/05/03 05:43:15;;;;;;;12.63;7.28;;;9.50;99.90;;;8.45;89.52;101213.78;4950583;28;20018;-74
2022/05/03 05:45:42;;;;;;;21.38;7.25;;;9.50;99.90;;;8.50;90.37;101207.47;4968332;28;20022;-74
2022/05/03 05:48:08;;;;;;;13.60;7.53;;;9.60;99.90;;;8.63;90.01;101205.31;4960373;28;20038;-74
2022/05/03 05:50:35;;;;;;;13.20;7.38;;;9.70;99.90;;;8.77;90.35;101212.78;4962023;28;20596;-74
2022/05/03 05:55:45;;;;;;;14.85;7.70;;;10.00;99.90;;;9.28;90.18;101209.34;4960511;28;20052;-74
2022/05/03 05:58:11;;;;;;;9.50;7.15;;;10.10;99.90;;;9.40;89.33;101211.59;4959557;28;20510;-75
2022/05/03 06:00:37;;;;;;;13.63;7.63;;;10.30;99.90;;;9.60;88.49;101216.16;4977184;28;20097;-75
2022/05/03 06:03:03;;;;;;;14.00;7.63;;;10.50;99.90;;;9.98;86.87;101213.94;4963033;28;20030;-75
2022/05/03 06:05:30;;;;;;;13.60;7.40;;;10.80;99.90;;;10.38;85.54;101215.13;4960315;28;20031;-75
2022/05/03 06:07:56;;;;;;;15.25;7.22;;;11.10;99.90;;;11.04;82.88;101223.06;4961150;28;20446;-75
2022/05/03 06:10:23;;;;;;;12.38;7.38;;;11.50;99.90;;;11.26;80.24;101215.13;4961572;28;20081;-74
2022/05/03 06:12:49;;;;;;;13.35;7.30;;;11.90;99.90;;;12.38;78.54;101235.78;4962876;28;20125;-74
2022/05/03 06:15:16;;;;;;;12.55;7.13;;;12.50;99.90;;;12.86;74.57;101223.84;4963635;28;20505;-75
2022/05/03 06:17:42;;;;;;;11.55;7.10;;;13.00;99.90;;;13.00;72.99;101231.13;4981301;28;20543;-75
2022/05/03 06:20:09;;;;;;;14.32;6.80;;;13.40;99.90;;;13.28;71.37;101235.03;4965311;28;20220;-75
2022/05/03 06:22:35;;;;;;;12.82;6.93;;;13.70;99.90;;;13.41;69.69;101232.66;4978727;28;20042;-75
2022/05/03 06:25:00;;;;;;;11.98;6.93;;;13.80;99.90;;;13.17;70.01;101243.47;4965935;28;20125;-75
2022/05/03 06:27:26;;;;;;;14.30;6.28;;;13.90;99.90;;;12.97;70.12;101235.69;4964968;28;20039;-75
2022/05/03 06:29:52;;;;;;;13.82;6.72;;;13.90;99.90;;;12.93;71.15;101245.53;4965107;28;20026;-75
2022/05/03 06:32:17;;;;;;;12.50;6.88;;;13.70;99.90;;;12.76;71.60;101250.78;4968160;28;20419;-75
2022/05/03 06:34:43;;;;;;;15.05;7.18;;;13.60;99.90;;;12.60;71.79;101263.84;4962078;28;20065;-75
2022/05/03 06:37:09;;;;;;;14.23;7.57;;;13.40;99.90;;;12.58;73.03;101256.00;4965646;28;20058;-75
2022/05/03 06:39:38;;;;;;;11.13;7.30;;;13.60;99.90;;;13.20;71.97;101256.56;4963823;28;20034;-75
2022/05/03 06:42:06;;;;;;;18.90;7.70;;;13.70;99.90;;;13.19;70.96;101256.63;4965051;28;20046;-76
2022/05/03 06:44:32;;;;;;;12.20;7.38;;;13.60;99.90;;;12.93;71.03;101264.88;4964351;28;20149;-75
2022/05/03 06:46:57;;;;;;;14.10;6.97;;;13.50;99.90;;;12.69;71.23;101253.69;4949218;28;20030;-75
2022/05/03 06:49:23;;;;;;;14.88;7.03;;;13.40;99.90;;;12.63;72.63;101268.97;4965488;28;20130;-75
2022/05/03 06:51:50;;;;;;;9.95;6.45;;;13.30;99.90;;;12.60;71.97;101263.84;4975358;28;20043;-75
2022/05/03 06:54:15;;;;;;;11.32;7.18;;;13.20;99.90;;;12.47;73.34;101274.13;4983658;28;20043;-75
2022/05/03 06:56:41;;;;;;;15.27;7.50;;;13.20;99.90;;;12.47;73.45;101274.97;4965497;28;22174;-75
2022/05/03 06:59:07;;;;;;;13.82;8.25;;;13.30;99.90;;;12.59;73.96;101272.69;4981383;28;20027;-76
2022/05/03 07:01:33;;;;;;;12.77;7.85;;;13.40;99.90;;;12.81;73.54;101280.50;4961252;28;20109;-76
2022/05/03 07:03:59;;;;;;;14.88;7.63;;;13.40;99.90;;;12.78;72.61;101278.84;4962034;28;20027;-76
2022/05/03 07:06:25;;;;;;;14.15;7.93;;;13.60;99.90;;;13.14;73.30;101273.59;4962390;28;20031;-76
2022/05/03 07:08:51;;;;;;;13.05;7.80;;;13.80;99.90;;;13.40;71.99;101273.28;4963501;28;20032;-75
2022/05/03 07:11:17;;;;;;;12.13;7.28;;;14.00;99.90;;;13.58;71.79;101280.28;4967251;28;20137;-75
2022/05/03 07:13:43;;;;;;;15.57;8.15;;;14.40;99.90;;;14.03;71.24;101289.44;4963027;28;20030;-76
2022/05/03 07:16:09;;;;;;;13.57;7.63;;;14.70;99.90;;;14.27;69.89;101287.28;4972478;28;20491;-75
2022/05/03 07:24:04;;;;;;;16.15;8.68;;;14.40;99.90;;;13.24;71.63;101292.50;4961591;28;20100;-75
2022/05/03 07:26:30;;;;;;;14.52;8.43;;;13.90;99.90;;;12.64;73.43;101291.84;4962286;28;20023;-75
2022/05/03 07:28:56;;;;;;;15.40;9.07;;;13.60;99.90;;;12.24;76.09;101291.84;4962614;28;20116;-74
2022/05/03 07:31:23;;;;;;;16.58;9.25;;;13.30;99.90;;;12.06;78.12;101288.25;4978070;28;20051;-75
2022/05/03 07:33:49;;;;;;;15.02;7.97;;;13.20;99.90;;;12.06;79.06;101290.03;4983185;28;20038;-75
2022/05/03 07:36:18;;;;;;;20.27;9.98;;;13.20;99.90;;;12.41;79.05;101296.38;4966472;23;20034;-76
2022/05/03 07:38:43;;;;;;;17.42;9.73;;;13.40;99.90;;;12.71;78.07;101299.41;4939277;28;20026;-76
2022/05/03 07:41:10;;;;;;;15.93;9.02;;;13.50;99.90;;;12.96;77.07;101303.56;4925432;28;20100;-75
2022/05/03 07:43:38;;;;;;;17.75;10.13;;;13.70;99.90;;;13.22;74.94;101302.31;4917080;28;20133;-76
2022/05/03 07:46:04;;;;;;;18.10;10.43;;;14.00;99.90;;;13.46;74.31;101300.28;4927534;28;20037;-77
2022/05/03 07:48:30;;;;;;;16.58;9.50;;;14.10;99.90;;;13.71;73.38;101306.97;4920738;28;20026;-77
2022/05/03 07:50:58;;;;;;;15.55;9.13;;;14.30;99.90;;;13.78;72.73;101302.22;4871372;28;20031;-77
2022/05/03 07:53:49;;;;;;;;;;;;;;;;;;;;;
2022/05/03 07:56:15;;;;;;;15.48;9.15;;;14.40;99.90;;;13.62;72.47;101308.28;4874990;28;20967;-76
2022/05/03 07:58:41;;;;;;;18.23;9.40;;;14.30;99.90;;;13.29;72.54;101305.53;4879841;28;20031;-76
2022/05/03 08:01:06;;;;;;;;;;;14.10;99.90;;;12.92;74.04;101313.41;4902550;28;20023;-76
2022/05/03 08:03:32;;;;;;;17.25;9.25;;;13.80;99.90;;;12.65;76.31;101317.34;4920034;28;19933;-76
2022/05/03 08:05:58;;;;;;;18.42;9.18;;;13.50;99.90;;;12.13;77.98;101314.38;4938036;28;20035;-76
2022/05/03 08:08:24;;;;;;;23.70;9.43;;;13.30;99.90;;;11.95;79.48;101313.41;4939393;28;22535;-76
2022/05/03 08:10:50;;;;;;;20.10;10.35;;;13.20;99.90;;;12.00;81.25;101317.53;4911393;28;20039;-77
2022/05/03 08:13:16;;;;;;;19.67;10.65;;;13.20;99.90;;;12.37;80.26;101317.72;4933810;28;20072;-77
2022/05/03 08:15:42;;;;;;;19.15;10.40;;;13.30;99.90;;;12.47;78.87;101322.53;4950935;28;20099;-77
2022/05/03 08:18:07;;;;;;;20.55;9.50;;;13.50;99.90;;;12.88;77.96;101332.13;4910429;28;20035;-77
2022/05/03 08:20:36;;;;;;;15.85;9.48;;;13.90;99.90;;;14.05;75.00;101322.00;4961851;28;20029;-77
2022/05/03 08:23:01;;;;;;;17.60;9.73;;;14.60;99.90;;;14.65;72.47;101318.88;4918974;28;20034;-76
2022/05/03 08:25:32;;;;;;;19.63;10.10;;;14.90;99.90;;;14.39;70.40;101320.25;4934848;28;20034;-76
2022/05/03 08:27:58;;;;;;;18.13;10.70;;;15.00;99.90;;;14.84;69.87;101329.34;4934632;28;20458;-76
2022/05/03 08:30:24;;;;;;;17.05;10.50;;;15.40;99.90;;;15.46;68.60;101325.88;4937728;28;20134;-76
2022/05/03 08:32:49;;;;;;;21.98;10.68;;;15.90;99.90;;;16.18;65.73;101332.28;4920717;28;20038;-77
2022/05/03 08:35:15;;;;;;;18.23;9.80;;;16.30;99.90;;;16.39;63.58;101333.63;4915166;28;20054;-77
2022/05/03 08:43:11;;;;;;;15.02;9.27;;;16.90;99.90;;;16.25;62.85;101344.25;4901867;28;20164;-76
2022/05/03 08:45:37;;;;;;;18.17;10.25;;;16.80;99.90;;;16.02;64.01;101342.13;4929141;28;20104;-77
2022/05/03 08:48:03;;;;;;;19.45;11.05;;;16.40;99.90;;;15.41;64.58;101346.53;4906243;28;20498;-76
2022/05/03 08:50:35;;;;;;;19.95;11.13;;;16.10;99.90;;;14.91;67.49;101353.72;4924193;28;20059;-76
2022/05/03 08:53:04;;;;;;;20.65;11.52;;;15.60;99.90;;;14.28;69.15;101343.81;4940097;28;20059;-76
2022/05/03 08:55:30;;;;;;;19.88;10.50;;;15.20;99.90;;;13.81;71.06;101355.88;4929928;28;20073;-76
2022/05/03 08:57:56;;;;;;;20.08;12.13;;;14.90;99.90;;;13.62;73.41;101349.78;4936166;28;20035;-76
2022/05/03 09:00:32;;;;;;;21.83;11.45;;;14.70;99.90;;;13.45;74.12;101351.47;4931276;28;20033;-76
2022/05/03 09:02:59;;;;;;;19.92;11.15;;;14.40;99.90;;;13.26;75.04;101356.78;4920508;28;20113;-76
2022/05/03 09:05:30;;;;;;;18.63;11.70;;;14.20;99.90;;;13.03;75.45;101357.00;4938566;28;20952;-76
2022/05/03 09:07:59;;;;;;;18.80;11.00;;;14.00;99.90;;;12.78;77.02;101352.81;4911995;28;20461;-76
2022/05/03 09:10:28;;;;;;;21.02;11.98;;;13.90;99.90;;;12.84;76.74;101356.97;4930085;28;20108;-76
2022/05/03 09:13:19;;;;;;;21.83;12.00;;;13.90;99.90;;;12.92;77.60;101354.84;4908949;28;20137;-76
2022/05/03 09:15:58;;;;;;;22.10;12.25;;;13.80;99.90;;;13.00;77.94;101358.00;4931225;28;20042;-77
2022/05/03 09:18:35;;;;;;;18.20;10.85;;;14.00;99.90;;;13.34;76.68;101345.84;4942619;28;20023;-77
2022/05/03 09:24:05;;;;;;;21.45;12.52;;;14.30;99.90;;;13.73;74.17;101353.59;4913592;28;20042;-76
2022/05/03 09:26:39;;;;;;;17.80;10.73;;;14.60;99.90;;;14.28;72.85;101341.16;4934895;28;20029;-76
2022/05/03 09:29:17;;;;;;;17.80;10.75;;;15.10;99.90;;;15.20;69.71;101349.44;4910443;28;20055;-77
2022/05/03 09:31:50;;;;;;;13.73;8.15;;;15.70;99.90;;;15.66;66.90;101343.28;4924276;28;20050;-76
2022/05/03 09:34:30;;;;;;;14.98;9.82;;;16.10;99.90;;;16.12;65.31;101343.28;4916014;28;20034;-76
2022/05/03 09:37:09;;;;;;;14.30;9.13;;;16.60;99.90;;;16.67;63.70;101360.31;4908181;28;20040;-77
2022/05/03 09:39:58;;;;;;;13.48;8.65;;;17.10;99.90;;;17.34;62.42;101357.84;4937416;28;20536;-77
2022/05/03 09:42:29;;;;;;;14.77;9.30;;;17.70;99.90;;;17.81;60.08;101348.53;4915887;28;20072;-76
2022/05/03 09:45:05;;;;;;;15.43;8.77;;;18.20;99.90;;;18.21;58.56;101352.03;4917241;28;20408;-77
2022/05/03 09:47:56;;;;;;;16.55;8.98;;;18.60;99.90;;;18.37;56.20;101350.97;4897987;28;20411;-76
2022/05/03 09:50:34;;;;;;;16.70;8.70;;;18.80;99.90;;;18.64;56.35;101357.06;4923839;28;20086;-76
2022/05/03 09:53:18;;;;;;;14.55;8.18;;;19.00;99.90;;;18.72;55.67;101366.31;4954056;28;20070;-76
2022/05/03 09:55:50;;;;;;;17.13;8.48;;;19.10;99.90;;;18.71;55.64;101365.47;4942303;28;20023;-76
2022/05/03 09:58:28;;;;;;;12.73;8.30;;;19.20;99.90;;;18.64;56.02;101362.38;4904114;28;20027;-76
2022/05/03 10:01:05;;;;;;;13.95;7.70;;;19.20;99.90;;;18.64;55.32;101362.38;4943831;28;20022;-77
2022/05/03 10:03:34;;;;;;;15.02;7.82;;;19.20;99.90;;;18.52;55.88;101368.56;4884077;28;20045;-75
2022/05/03 10:06:03;;;;;;;10.60;7.57;;;19.10;99.90;;;18.41;55.56;101363.97;4946147;28;20045;-75
2022/05/03 10:08:33;;;;;;;15.63;8.10;;;19.00;99.90;;;18.30;55.28;101371.03;4941504;28;20028;-76
2022/05/03 10:11:02;;;;;;;13.23;7.28;;;18.90;99.90;;;18.34;54.97;101364.53;4958117;28;20450;-76
2022/05/03 10:13:28;;;;;;;12.02;7.80;;;18.90;99.90;;;18.29;55.81;101369.31;4931150;28;20516;-75
2022/05/03 10:21:55;;;;;;;13.77;8.68;;;18.60;99.90;;;17.75;56.42;101365.78;4957418;28;20034;-76
2022/05/03 10:24:35;;;;;;;21.90;8.85;;;18.40;99.90;;;17.46;57.06;101370.38;4984223;23;20025;-77
2022/05/03 10:27:35;;;;;;;13.68;8.13;;;18.20;99.90;;;17.28;57.13;101368.88;4869746;28;20044;-76
2022/05/03 10:30:44;;;;;;;;;;;;;;;;;;;;;
2022/05/03 10:33:37;;;;;;;14.25;8.70;;;17.80;99.90;;;16.97;59.65;101369.03;4873797;28;20423;-75
2022/05/03 10:36:35;;;;;;;14.30;8.30;;;17.70;99.90;;;16.93;59.45;101367.56;4919355;28;20043;-74
2022/05/03 10:39:17;;;;;;;12.30;8.00;;;17.70;99.90;;;16.87;60.13;101375.03;4921497;28;20052;-75
2022/05/03 10:42:04;;;;;;;12.65;6.78;;;17.40;99.90;;;16.09;58.80;101370.00;4916564;28;20039;-75
2022/05/03 10:44:55;;;;;;;15.02;8.05;;;16.80;99.90;;;15.25;60.96;101376.56;4907346;28;20071;-75
2022/05/03 10:47:47;;;;;;;13.45;7.15;;;16.20;99.90;;;14.40;63.18;101372.28;4946917;28;20023;-75
2022/05/03 10:50:15;;;;;;;9.48;5.50;;;15.40;99.90;;;13.65;65.61;101374.31;4923643;28;20028;-75
2022/05/03 10:52:56;;;;;;;9.88;5.30;;;14.90;99.90;;;13.11;66.60;101373.38;4932855;28;20050;-74
2022/05/03 10:55:26;;;;;;;9.80;5.68;;;14.40;99.90;;;12.75;68.44;101371.47;4917965;28;20519;-74
2022/05/03 10:58:33;;;;;;;10.38;5.93;;;14.00;99.90;;;12.44;70.05;101380.78;4910349;28;20106;-74
2022/05/03 11:01:24;;;;;;;13.00;7.00;;;13.80;99.90;;;12.39;71.94;101377.47;4913252;28;20118;-75
2022/05/03 11:03:54;;;;;;;16.55;7.82;;;13.70;99.90;;;12.39;72.85;101372.19;4917555;28;20291;-75
2022/05/03 11:06:22;;;;;;;15.80;7.63;;;13.60;99.90;;;12.37;72.94;101374.03;4923804;28;20094;-76
2022/05/03 11:11:49;;;;;;;17.58;7.55;;;13.60;99.90;;;12.61;73.65;101365.94;4911225;28;20031;-75
2022/05/03 11:14:18;;;;;;;22.67;8.32;;;13.60;99.90;;;12.75;72.94;101368.84;4939147;28;20043;-75
2022/05/03 11:17:10;;;;;;;18.80;7.70;;;13.80;99.90;;;12.87;72.18;101368.28;4911079;28;20023;-75
2022/05/03 11:19:51;;;;;;;14.23;7.60;;;13.90;99.90;;;13.13;72.43;101363.53;4924422;28;20054;-75